sensor_id;sensor_type;location;lat;lon;timestamp;pressure;altitude;pressure_sealevel;temperature
37452;BMP280;23314;51.114;6.900;2023-04-01T00:00:46;99120.94;;;12.45
37452;BMP280;23314;51.114;6.900;2023-04-01T00:03:11;99123.59;;;12.45
37452;BMP280;23314;51.114;6.900;2023-04-01T00:05:37;99118.97;;;12.45
37452;BMP280;23314;51.114;6.900;2023-04-01T00:08:02;99118.69;;;12.43
37452;BMP280;23314;51.114;6.900;2023-04-01T00:10:27;99127.63;;;12.40
37452;BMP280;23314;51.114;6.900;2023-04-01T00:12:53;99122.00;;;12.38
37452;BMP280;23314;51.114;6.900;2023-04-01T00:15:18;99123.47;;;12.39
37452;BMP280;23314;51.114;6.900;2023-04-01T00:17:43;99132.25;;;12.39
37452;BMP280;23314;51.114;6.900;2023-04-01T00:20:10;99119.16;;;12.42
37452;BMP280;23314;51.114;6.900;2023-04-01T00:22:36;99119.88;;;12.42
37452;BMP280;23314;51.114;6.900;2023-04-01T00:25:01;99119.88;;;12.42
37452;BMP280;23314;51.114;6.900;2023-04-01T00:27:27;99122.28;;;12.40
37452;BMP280;23314;51.114;6.900;2023-04-01T00:29:52;99128.94;;;12.45
37452;BMP280;23314;51.114;6.900;2023-04-01T00:32:17;99116.47;;;12.42
37452;BMP280;23314;51.114;6.900;2023-04-01T00:34:43;99112.63;;;12.43
37452;BMP280;23314;51.114;6.900;2023-04-01T00:37:09;99115.13;;;12.46
37452;BMP280;23314;51.114;6.900;2023-04-01T00:39:35;99101.16;;;12.42
37452;BMP280;23314;51.114;6.900;2023-04-01T00:42:02;99111.41;;;12.44
37452;BMP280;23314;51.114;6.900;2023-04-01T00:44:31;99106.81;;;12.44
37452;BMP280;23314;51.114;6.900;2023-04-01T00:46:57;99105.78;;;12.42
37452;BMP280;23314;51.114;6.900;2023-04-01T00:49:27;99111.59;;;12.40
37452;BMP280;23314;51.114;6.900;2023-04-01T00:51:55;99108.19;;;12.39
37452;BMP280;23314;51.114;6.900;2023-04-01T00:54:22;99099.88;;;12.37
37452;BMP280;23314;51.114;6.900;2023-04-01T00:56:55;99101.97;;;12.33
37452;BMP280;23314;51.114;6.900;2023-04-01T00:59:25;99104.19;;;12.35
37452;BMP280;23314;51.114;6.900;2023-04-01T01:01:51;99107.59;;;12.35
37452;BMP280;23314;51.114;6.900;2023-04-01T01:04:29;99103.28;;;12.38
37452;BMP280;23314;51.114;6.900;2023-04-01T01:08:00;99099.13;;;12.37
37452;BMP280;23314;51.114;6.900;2023-04-01T01:10:11;99101.50;;;12.35
37452;BMP280;23314;51.114;6.900;2023-04-01T01:13:19;99086.66;;;12.34
37452;BMP280;23314;51.114;6.900;2023-04-01T01:16:00;99089.06;;;12.32
37452;BMP280;23314;51.114;6.900;2023-04-01T01:18:43;99100.03;;;12.34
37452;BMP280;23314;51.114;6.900;2023-04-01T01:24:23;99093.06;;;12.27
37452;BMP280;23314;51.114;6.900;2023-04-01T01:26:58;99085.81;;;12.28
37452;BMP280;23314;51.114;6.900;2023-04-01T01:37:51;99092.97;;;12.21
37452;BMP280;23314;51.114;6.900;2023-04-01T01:40:18;99095.63;;;12.21
37452;BMP280;23314;51.114;6.900;2023-04-01T01:42:47;99092.97;;;12.21
37452;BMP280;23314;51.114;6.900;2023-04-01T01:45:14;99092.97;;;12.21
37452;BMP280;23314;51.114;6.900;2023-04-01T01:47:43;99097.13;;;12.22
37452;BMP280;23314;51.114;6.900;2023-04-01T01:50:09;99098.59;;;12.23
37452;BMP280;23314;51.114;6.900;2023-04-01T01:52:35;99096.81;;;12.20
37452;BMP280;23314;51.114;6.900;2023-04-01T01:55:01;99100.25;;;12.21
37452;BMP280;23314;51.114;6.900;2023-04-01T01:57:29;99098.00;;;12.19
37452;BMP280;23314;51.114;6.900;2023-04-01T01:59:59;99097.75;;;12.17
37452;BMP280;23314;51.114;6.900;2023-04-01T02:02:26;99090.91;;;12.16
37452;BMP280;23314;51.114;6.900;2023-04-01T02:04:56;99092.28;;;12.12
37452;BMP280;23314;51.114;6.900;2023-04-01T02:07:30;99081.75;;;12.08
37452;BMP280;23314;51.114;6.900;2023-04-01T02:09:57;99086.53;;;12.04
37452;BMP280;23314;51.114;6.900;2023-04-01T02:12:24;99092.03;;;12.00
37452;BMP280;23314;51.114;6.900;2023-04-01T02:15:00;99090.97;;;11.98
37452;BMP280;23314;51.114;6.900;2023-04-01T02:17:31;99091.91;;;11.95
37452;BMP280;23314;51.114;6.900;2023-04-01T02:20:04;99093.38;;;11.96
37452;BMP280;23314;51.114;6.900;2023-04-01T02:22:37;99081.66;;;11.93
37452;BMP280;23314;51.114;6.900;2023-04-01T02:25:12;99092.97;;;11.88
37452;BMP280;23314;51.114;6.900;2023-04-01T02:27:38;99091.47;;;11.87
37452;BMP280;23314;51.114;6.900;2023-04-01T02:30:04;99093.44;;;11.86
37452;BMP280;23314;51.114;6.900;2023-04-01T02:32:31;99087.03;;;11.84
37452;BMP280;23314;51.114;6.900;2023-04-01T02:34:57;99079.94;;;11.81
37452;BMP280;23314;51.114;6.900;2023-04-01T02:37:25;99083.34;;;11.81
37452;BMP280;23314;51.114;6.900;2023-04-01T02:39:50;99080.38;;;11.79
37452;BMP280;23314;51.114;6.900;2023-04-01T02:42:15;99082.03;;;11.77
37452;BMP280;23314;51.114;6.900;2023-04-01T02:44:41;99085.13;;;11.75
37452;BMP280;23314;51.114;6.900;2023-04-01T02:47:06;99084.84;;;11.73
37452;BMP280;23314;51.114;6.900;2023-04-01T02:49:31;99088.41;;;11.70
37452;BMP280;23314;51.114;6.900;2023-04-01T02:51:56;99087.69;;;11.69
37452;BMP280;23314;51.114;6.900;2023-04-01T02:54:22;99094.06;;;11.72
37452;BMP280;23314;51.114;6.900;2023-04-01T02:56:47;99094.06;;;11.72
37452;BMP280;23314;51.114;6.900;2023-04-01T02:59:12;99086.34;;;11.74
37452;BMP280;23314;51.114;6.900;2023-04-01T03:01:38;99095.06;;;11.74
37452;BMP280;23314;51.114;6.900;2023-04-01T03:04:03;99087.78;;;11.75
37452;BMP280;23314;51.114;6.900;2023-04-01T03:06:29;99093.44;;;11.77
37452;BMP280;23314;51.114;6.900;2023-04-01T03:08:54;99094.63;;;11.76
37452;BMP280;23314;51.114;6.900;2023-04-01T03:11:19;99092.56;;;11.80
37452;BMP280;23314;51.114;6.900;2023-04-01T03:13:46;99090.88;;;11.83
37452;BMP280;23314;51.114;6.900;2023-04-01T03:16:12;99098.16;;;11.82
37452;BMP280;23314;51.114;6.900;2023-04-01T03:18:37;99100.84;;;11.82
37452;BMP280;23314;51.114;6.900;2023-04-01T03:21:17;99104.72;;;11.81
37452;BMP280;23314;51.114;6.900;2023-04-01T03:23:43;99107.41;;;11.81
37452;BMP280;23314;51.114;6.900;2023-04-01T03:26:08;99114.66;;;11.81
37452;BMP280;23314;51.114;6.900;2023-04-01T03:28:34;99103.97;;;11.81
37452;BMP280;23314;51.114;6.900;2023-04-01T03:30:59;99102.06;;;11.81
37452;BMP280;23314;51.114;6.900;2023-04-01T03:33:24;99117.59;;;11.83
37452;BMP280;23314;51.114;6.900;2023-04-01T03:35:50;99115.22;;;11.85
37452;BMP280;23314;51.114;6.900;2023-04-01T03:38:17;99117.91;;;11.85
37452;BMP280;23314;51.114;6.900;2023-04-01T03:40:43;99115.53;;;11.87
37452;BMP280;23314;51.114;6.900;2023-04-01T03:43:08;99117.47;;;11.86
37452;BMP280;23314;51.114;6.900;2023-04-01T03:45:35;99128.88;;;11.87
37452;BMP280;23314;51.114;6.900;2023-04-01T03:48:00;99123.53;;;11.87
37452;BMP280;23314;51.114;6.900;2023-04-01T03:50:26;99121.03;;;11.83
37452;BMP280;23314;51.114;6.900;2023-04-01T03:52:51;99119.53;;;11.82
37452;BMP280;23314;51.114;6.900;2023-04-01T03:55:16;99108.09;;;11.82
37452;BMP280;23314;51.114;6.900;2023-04-01T03:57:43;99128.00;;;11.81
37452;BMP280;23314;51.114;6.900;2023-04-01T04:00:09;99125.34;;;11.81
37452;BMP280;23314;51.114;6.900;2023-04-01T04:02:34;99121.63;;;11.78
37452;BMP280;23314;51.114;6.900;2023-04-01T04:05:00;99130.53;;;11.75
37452;BMP280;23314;51.114;6.900;2023-04-01T04:07:26;99123.44;;;11.72
37452;BMP280;23314;51.114;6.900;2023-04-01T04:09:51;99124.75;;;11.67
37452;BMP280;23314;51.114;6.900;2023-04-01T04:12:16;99122.81;;;11.68
37452;BMP280;23314;51.114;6.900;2023-04-01T04:14:42;99127.91;;;11.66
37452;BMP280;23314;51.114;6.900;2023-04-01T04:17:10;99131.31;;;11.66
37452;BMP280;23314;51.114;6.900;2023-04-01T04:19:38;99122.09;;;11.67
37452;BMP280;23314;51.114;6.900;2023-04-01T04:22:04;99127.28;;;11.71
37452;BMP280;23314;51.114;6.900;2023-04-01T04:24:29;99128.91;;;11.68
37452;BMP280;23314;51.114;6.900;2023-04-01T04:26:54;99125.06;;;11.69
37452;BMP280;23314;51.114;6.900;2023-04-01T04:29:20;99132.63;;;11.71
37452;BMP280;23314;51.114;6.900;2023-04-01T04:31:45;99129.53;;;11.72
37452;BMP280;23314;51.114;6.900;2023-04-01T04:34:11;99132.94;;;11.73
37452;BMP280;23314;51.114;6.900;2023-04-01T04:36:36;99131.28;;;11.76
37452;BMP280;23314;51.114;6.900;2023-04-01T04:39:01;99130.84;;;11.77
37452;BMP280;23314;51.114;6.900;2023-04-01T04:41:28;99128.16;;;11.77
37452;BMP280;23314;51.114;6.900;2023-04-01T04:43:55;99129.34;;;11.76
37452;BMP280;23314;51.114;6.900;2023-04-01T04:46:21;99133.50;;;11.77
37452;BMP280;23314;51.114;6.900;2023-04-01T04:48:47;99138.38;;;11.79
37452;BMP280;23314;51.114;6.900;2023-04-01T04:51:18;99135.72;;;11.79
37452;BMP280;23314;51.114;6.900;2023-04-01T04:53:44;99139.16;;;11.79
37452;BMP280;23314;51.114;6.900;2023-04-01T04:56:09;99142.28;;;11.78
37452;BMP280;23314;51.114;6.900;2023-04-01T04:58:36;99139.16;;;11.79
37452;BMP280;23314;51.114;6.900;2023-04-01T05:01:10;99144.50;;;11.79
37452;BMP280;23314;51.114;6.900;2023-04-01T05:03:36;99147.88;;;11.80
37452;BMP280;23314;51.114;6.900;2023-04-01T05:06:01;99152.97;;;11.78
37452;BMP280;23314;51.114;6.900;2023-04-01T05:08:26;99147.31;;;11.76
37452;BMP280;23314;51.114;6.900;2023-04-01T05:10:52;99155.06;;;11.73
37452;BMP280;23314;51.114;6.900;2023-04-01T05:13:17;99158.91;;;11.72
37452;BMP280;23314;51.114;6.900;2023-04-01T05:15:42;99157.13;;;11.69
37452;BMP280;23314;51.114;6.900;2023-04-01T05:18:08;99159.47;;;11.67
37452;BMP280;23314;51.114;6.900;2023-04-01T05:20:33;99165.31;;;11.66
37452;BMP280;23314;51.114;6.900;2023-04-01T05:22:59;99166.50;;;11.65
37452;BMP280;23314;51.114;6.900;2023-04-01T05:25:25;99156.22;;;11.63
37452;BMP280;23314;51.114;6.900;2023-04-01T05:27:50;99162.47;;;11.60
37452;BMP280;23314;51.114;6.900;2023-04-01T05:30:16;99166.03;;;11.57
37452;BMP280;23314;51.114;6.900;2023-04-01T05:32:41;99170.19;;;11.58
37452;BMP280;23314;51.114;6.900;2023-04-01T05:35:07;99175.06;;;11.60
37452;BMP280;23314;51.114;6.900;2023-04-01T05:37:36;99163.94;;;11.61
37452;BMP280;23314;51.114;6.900;2023-04-01T05:40:03;99159.78;;;11.60
37452;BMP280;23314;51.114;6.900;2023-04-01T05:42:29;99175.06;;;11.60
37452;BMP280;23314;51.114;6.900;2023-04-01T05:44:54;99174.63;;;11.61
37452;BMP280;23314;51.114;6.900;2023-04-01T05:47:21;99179.53;;;11.63
37452;BMP280;23314;51.114;6.900;2023-04-01T05:49:46;99176.09;;;11.62
37452;BMP280;23314;51.114;6.900;2023-04-01T05:52:11;99179.38;;;11.66
37452;BMP280;23314;51.114;6.900;2023-04-01T05:54:37;99180.13;;;11.67
37452;BMP280;23314;51.114;6.900;2023-04-01T05:57:02;99179.66;;;11.68
37452;BMP280;23314;51.114;6.900;2023-04-01T05:59:27;99179.66;;;11.68
37452;BMP280;23314;51.114;6.900;2023-04-01T06:01:53;99172.09;;;11.67
37452;BMP280;23314;51.114;6.900;2023-04-01T06:04:18;99180.56;;;11.65
37452;BMP280;23314;51.114;6.900;2023-04-01T06:06:44;99182.78;;;11.67
37452;BMP280;23314;51.114;6.900;2023-04-01T06:09:26;99189.34;;;11.66
37452;BMP280;23314;51.114;6.900;2023-04-01T06:12:15;99195.88;;;11.65
37452;BMP280;23314;51.114;6.900;2023-04-01T06:14:54;99186.66;;;11.66
37452;BMP280;23314;51.114;6.900;2023-04-01T06:17:52;99192.00;;;11.66
37452;BMP280;23314;51.114;6.900;2023-04-01T06:20:54;99203.69;;;11.68
37452;BMP280;23314;51.114;6.900;2023-04-01T06:29:30;99199.81;;;11.79
37452;BMP280;23314;51.114;6.900;2023-04-01T06:35:02;99206.66;;;11.80
37452;BMP280;23314;51.114;6.900;2023-04-01T06:46:17;99204.69;;;11.99
37452;BMP280;23314;51.114;6.900;2023-04-01T06:56:58;99215.34;;;12.17
37452;BMP280;23314;51.114;6.900;2023-04-01T06:59:30;99212.81;;;12.23
37452;BMP280;23314;51.114;6.900;2023-04-01T07:02:01;99212.94;;;12.29
37452;BMP280;23314;51.114;6.900;2023-04-01T07:04:32;99218.28;;;12.29
37452;BMP280;23314;51.114;6.900;2023-04-01T07:07:02;99220.66;;;12.27
37452;BMP280;23314;51.114;6.900;2023-04-01T07:09:38;99219.34;;;12.22
37452;BMP280;23314;51.114;6.900;2023-04-01T07:14:58;99222.00;;;12.22
37452;BMP280;23314;51.114;6.900;2023-04-01T07:17:28;99230.03;;;12.22
37452;BMP280;23314;51.114;6.900;2023-04-01T07:20:20;99232.72;;;12.22
37452;BMP280;23314;51.114;6.900;2023-04-01T07:22:49;99228.97;;;12.19
37452;BMP280;23314;51.114;6.900;2023-04-01T07:25:22;99234.81;;;12.18
37452;BMP280;23314;51.114;6.900;2023-04-01T07:27:52;99235.22;;;12.16
37452;BMP280;23314;51.114;6.900;2023-04-01T07:30:20;99239.66;;;12.19
37452;BMP280;23314;51.114;6.900;2023-04-01T07:33:11;99250.06;;;12.27
37452;BMP280;23314;51.114;6.900;2023-04-01T07:35:54;99249.47;;;12.32
37452;BMP280;23314;51.114;6.900;2023-04-01T07:41:25;99250.34;;;12.38
37452;BMP280;23314;51.114;6.900;2023-04-01T07:44:10;99261.16;;;12.44
37452;BMP280;23314;51.114;6.900;2023-04-01T07:46:53;99259.34;;;12.50
37452;BMP280;23314;51.114;6.900;2023-04-01T07:57:32;99269.59;;;12.51
37452;BMP280;23314;51.114;6.900;2023-04-01T08:00:20;99278.81;;;12.50
37452;BMP280;23314;51.114;6.900;2023-04-01T08:05:28;99286.84;;;12.50
37452;BMP280;23314;51.114;6.900;2023-04-01T08:08:09;99286.09;;;12.50
37452;BMP280;23314;51.114;6.900;2023-04-01T08:13:58;99284.91;;;12.42
37452;BMP280;23314;51.114;6.900;2023-04-01T08:21:52;99306.16;;;12.45
37452;BMP280;23314;51.114;6.900;2023-04-01T08:24:26;99307.91;;;12.48
37452;BMP280;23314;51.114;6.900;2023-04-01T08:26:55;99306.00;;;12.49
37452;BMP280;23314;51.114;6.900;2023-04-01T08:29:26;99325.19;;;12.47
37452;BMP280;23314;51.114;6.900;2023-04-01T08:32:11;99316.13;;;12.45
37452;BMP280;23314;51.114;6.900;2023-04-01T08:34:39;99320.72;;;12.44
37452;BMP280;23314;51.114;6.900;2023-04-01T08:37:15;99328.63;;;12.48
37452;BMP280;23314;51.114;6.900;2023-04-01T08:43:06;99324.88;;;12.45
37452;BMP280;23314;51.114;6.900;2023-04-01T08:48:36;99328.13;;;12.49
37452;BMP280;23314;51.114;6.900;2023-04-01T08:59:29;99344.72;;;12.63
37452;BMP280;23314;51.114;6.900;2023-04-01T09:21:33;99376.44;;;12.98
37452;BMP280;23314;51.114;6.900;2023-04-01T09:35:07;99399.59;;;12.67
37452;BMP280;23314;51.114;6.900;2023-04-01T09:37:53;99391.84;;;12.60
37452;BMP280;23314;51.114;6.900;2023-04-01T09:43:24;99401.38;;;12.52
37452;BMP280;23314;51.114;6.900;2023-04-01T09:57:11;99420.25;;;12.39
37452;BMP280;23314;51.114;6.900;2023-04-01T10:08:04;99428.56;;;12.50
37452;BMP280;23314;51.114;6.900;2023-04-01T10:24:47;99446.56;;;13.20
37452;BMP280;23314;51.114;6.900;2023-04-01T10:30:34;99443.53;;;13.61
37452;BMP280;23314;51.114;6.900;2023-04-01T10:33:35;99466.00;;;13.64
37452;BMP280;23314;51.114;6.900;2023-04-01T10:47:57;99464.28;;;13.51
37452;BMP280;23314;51.114;6.900;2023-04-01T10:53:42;99466.50;;;13.53
37452;BMP280;23314;51.114;6.900;2023-04-01T10:59:28;99470.28;;;13.37
37452;BMP280;23314;51.114;6.900;2023-04-01T11:04:57;99459.41;;;13.41
37452;BMP280;23314;51.114;6.900;2023-04-01T11:13:56;99474.31;;;13.66
37452;BMP280;23314;51.114;6.900;2023-04-01T11:19:53;99471.91;;;13.77
37452;BMP280;23314;51.114;6.900;2023-04-01T11:22:57;99470.41;;;13.76
37452;BMP280;23314;51.114;6.900;2023-04-01T11:33:42;99492.13;;;13.78
37452;BMP280;23314;51.114;6.900;2023-04-01T11:36:21;99492.41;;;13.80
37452;BMP280;23314;51.114;6.900;2023-04-01T11:42:01;99488.88;;;13.74
37452;BMP280;23314;51.114;6.900;2023-04-01T11:44:32;99496.72;;;13.78
37452;BMP280;23314;51.114;6.900;2023-04-01T11:55:21;99523.81;;;13.56
37452;BMP280;23314;51.114;6.900;2023-04-01T11:57:51;99515.00;;;13.55
37452;BMP280;23314;51.114;6.900;2023-04-01T12:03:33;99528.97;;;13.68
37452;BMP280;23314;51.114;6.900;2023-04-01T12:06:10;99528.00;;;13.71
37452;BMP280;23314;51.114;6.900;2023-04-01T12:11:15;99532.06;;;13.76
37452;BMP280;23314;51.114;6.900;2023-04-01T12:13:53;99538.59;;;13.75
37452;BMP280;23314;51.114;6.900;2023-04-01T12:16:51;99533.69;;;13.74
37452;BMP280;23314;51.114;6.900;2023-04-01T12:19:28;99540.53;;;13.75
37452;BMP280;23314;51.114;6.900;2023-04-01T12:22:38;99542.59;;;13.80
37452;BMP280;23314;51.114;6.900;2023-04-01T12:30:39;99549.44;;;13.71
37452;BMP280;23314;51.114;6.900;2023-04-01T12:33:23;99556.19;;;13.67
37452;BMP280;23314;51.114;6.900;2023-04-01T12:35:55;99560.97;;;13.63
37452;BMP280;23314;51.114;6.900;2023-04-01T12:39:29;99556.06;;;13.61
37452;BMP280;23314;51.114;6.900;2023-04-01T12:41:39;99563.53;;;13.57
37452;BMP280;23314;51.114;6.900;2023-04-01T12:44:38;99573.66;;;13.53
37452;BMP280;23314;51.114;6.900;2023-04-01T12:47:24;99571.31;;;13.46
37452;BMP280;23314;51.114;6.900;2023-04-01T12:55:46;99572.53;;;13.26
37452;BMP280;23314;51.114;6.900;2023-04-01T12:58:22;99582.97;;;13.15
37452;BMP280;23314;51.114;6.900;2023-04-01T13:01:19;99593.25;;;13.07
37452;BMP280;23314;51.114;6.900;2023-04-01T13:06:57;99587.88;;;13.07
37452;BMP280;23314;51.114;6.900;2023-04-01T13:09:40;99596.66;;;13.17
37452;BMP280;23314;51.114;6.900;2023-04-01T13:17:53;99602.75;;;13.17
37452;BMP280;23314;51.114;6.900;2023-04-01T13:23:04;99610.75;;;13.27
37452;BMP280;23314;51.114;6.900;2023-04-01T13:25:47;99604.97;;;13.37
37452;BMP280;23314;51.114;6.900;2023-04-01T13:28:37;99604.47;;;13.39
37452;BMP280;23314;51.114;6.900;2023-04-01T13:34:02;99618.47;;;13.43
37452;BMP280;23314;51.114;6.900;2023-04-01T13:36:50;99617.13;;;13.38
37452;BMP280;23314;51.114;6.900;2023-04-01T13:44:43;99625.16;;;13.48
37452;BMP280;23314;51.114;6.900;2023-04-01T13:51:12;99629.59;;;13.60
37452;BMP280;23314;51.114;6.900;2023-04-01T13:57:07;99635.81;;;13.76
37452;BMP280;23314;51.114;6.900;2023-04-01T13:59:59;99639.44;;;13.97
37452;BMP280;23314;51.114;6.900;2023-04-01T14:05:44;99637.38;;;14.01
37452;BMP280;23314;51.114;6.900;2023-04-01T14:11:04;99643.34;;;13.96
37452;BMP280;23314;51.114;6.900;2023-04-01T14:13:37;99651.09;;;13.94
37452;BMP280;23314;51.114;6.900;2023-04-01T14:21:50;99659.88;;;13.94
37452;BMP280;23314;51.114;6.900;2023-04-01T14:29:56;99666.97;;;14.07
37452;BMP280;23314;51.114;6.900;2023-04-01T14:32:51;99667.56;;;14.11
37452;BMP280;23314;51.114;6.900;2023-04-01T14:41:19;99671.75;;;14.02
37452;BMP280;23314;51.114;6.900;2023-04-01T14:50:14;99682.25;;;13.73
37452;BMP280;23314;51.114;6.900;2023-04-01T14:52:50;99678.13;;;13.62
37452;BMP280;23314;51.114;6.900;2023-04-01T14:55:36;99690.34;;;13.54
37452;BMP280;23314;51.114;6.900;2023-04-01T14:58:12;99698.22;;;13.48
37452;BMP280;23314;51.114;6.900;2023-04-01T15:01:00;99697.31;;;13.51
37452;BMP280;23314;51.114;6.900;2023-04-01T15:06:45;99705.94;;;13.65
37452;BMP280;23314;51.114;6.900;2023-04-01T15:09:38;99704.31;;;13.67
37452;BMP280;23314;51.114;6.900;2023-04-01T15:14:58;99711.00;;;13.81
37452;BMP280;23314;51.114;6.900;2023-04-01T15:35:14;99730.13;;;14.17
37452;BMP280;23314;51.114;6.900;2023-04-01T15:40:53;99727.34;;;13.93
37452;BMP280;23314;51.114;6.900;2023-04-01T15:43:37;99739.00;;;13.80
37452;BMP280;23314;51.114;6.900;2023-04-01T15:46:26;99751.50;;;13.65
37452;BMP280;23314;51.114;6.900;2023-04-01T16:00:20;99757.91;;;13.21
37452;BMP280;23314;51.114;6.900;2023-04-01T16:05:40;99768.28;;;13.10
37452;BMP280;23314;51.114;6.900;2023-04-01T16:19:50;99778.19;;;12.81
37452;BMP280;23314;51.114;6.900;2023-04-01T16:22:39;99781.59;;;12.82
37452;BMP280;23314;51.114;6.900;2023-04-01T16:25:26;99787.81;;;12.79
37452;BMP280;23314;51.114;6.900;2023-04-01T16:31:09;99784.66;;;12.71
37452;BMP280;23314;51.114;6.900;2023-04-01T16:33:47;99792.22;;;12.63
37452;BMP280;23314;51.114;6.900;2023-04-01T16:36:37;99790.28;;;12.54
37452;BMP280;23314;51.114;6.900;2023-04-01T16:45:35;99805.63;;;12.41
37452;BMP280;23314;51.114;6.900;2023-04-01T16:48:24;99811.72;;;12.42
37452;BMP280;23314;51.114;6.900;2023-04-01T16:51:15;99812.03;;;12.44
37452;BMP280;23314;51.114;6.900;2023-04-01T16:53:48;99816.94;;;12.45
37452;BMP280;23314;51.114;6.900;2023-04-01T16:56:23;99819.63;;;12.45
37452;BMP280;23314;51.114;6.900;2023-04-01T16:58:57;99821.97;;;12.43
37452;BMP280;23314;51.114;6.900;2023-04-01T17:01:31;99823.13;;;12.33
37452;BMP280;23314;51.114;6.900;2023-04-01T17:04:15;99833.50;;;12.31
37452;BMP280;23314;51.114;6.900;2023-04-01T17:06:54;99832.88;;;12.27
37452;BMP280;23314;51.114;6.900;2023-04-01T17:09:39;99838.38;;;12.23
37452;BMP280;23314;51.114;6.900;2023-04-01T17:12:16;99836.25;;;12.18
37452;BMP280;23314;51.114;6.900;2023-04-01T17:20:24;99854.97;;;12.18
37452;BMP280;23314;51.114;6.900;2023-04-01T17:23:01;99856.47;;;12.19
37452;BMP280;23314;51.114;6.900;2023-04-01T17:25:48;99854.97;;;12.18
37452;BMP280;23314;51.114;6.900;2023-04-01T17:28:27;99859.66;;;12.14
37452;BMP280;23314;51.114;6.900;2023-04-01T17:31:17;99866.19;;;12.13
37452;BMP280;23314;51.114;6.900;2023-04-01T17:42:18;99889.44;;;12.03
37452;BMP280;23314;51.114;6.900;2023-04-01T17:45:16;99882.59;;;12.02
37452;BMP280;23314;51.114;6.900;2023-04-01T17:48:10;99892.22;;;11.99
37452;BMP280;23314;51.114;6.900;2023-04-01T17:51:02;99894.28;;;11.95
37452;BMP280;23314;51.114;6.900;2023-04-01T17:53:36;99900.81;;;11.94
37452;BMP280;23314;51.114;6.900;2023-04-01T17:56:27;99911.91;;;11.93
37452;BMP280;23314;51.114;6.900;2023-04-01T17:59:18;99911.91;;;11.93
37452;BMP280;23314;51.114;6.900;2023-04-01T18:01:55;99919.59;;;11.90
37452;BMP280;23314;51.114;6.900;2023-04-01T18:05:23;99916.66;;;11.88
37452;BMP280;23314;51.114;6.900;2023-04-01T18:07:39;99924.66;;;11.88
37452;BMP280;23314;51.114;6.900;2023-04-01T18:10:25;99928.06;;;11.89
37452;BMP280;23314;51.114;6.900;2023-04-01T18:21:36;99944.88;;;11.89
37452;BMP280;23314;51.114;6.900;2023-04-01T18:24:35;99955.75;;;11.82
37452;BMP280;23314;51.114;6.900;2023-04-01T18:27:22;99960.78;;;11.80
37452;BMP280;23314;51.114;6.900;2023-04-01T18:30:17;99955.22;;;11.74
37452;BMP280;23314;51.114;6.900;2023-04-01T18:32:48;99960.25;;;11.72
37452;BMP280;23314;51.114;6.900;2023-04-01T18:35:21;99969.84;;;11.70
37452;BMP280;23314;51.114;6.900;2023-04-01T18:40:42;99979.59;;;11.64
37452;BMP280;23314;51.114;6.900;2023-04-01T18:43:21;99986.53;;;11.61
37452;BMP280;23314;51.114;6.900;2023-04-01T18:45:57;99985.88;;;11.57
37452;BMP280;23314;51.114;6.900;2023-04-01T18:48:56;99986.75;;;11.54
37452;BMP280;23314;51.114;6.900;2023-04-01T18:51:36;99994.88;;;11.50
37452;BMP280;23314;51.114;6.900;2023-04-01T18:54:24;99994.53;;;11.48
37452;BMP280;23314;51.114;6.900;2023-04-01T18:57:01;100001.81;;;11.48
37452;BMP280;23314;51.114;6.900;2023-04-01T18:59:46;100001.47;;;11.46
37452;BMP280;23314;51.114;6.900;2023-04-01T19:02:29;100006.06;;;11.45
37452;BMP280;23314;51.114;6.900;2023-04-01T19:05:00;100010.34;;;11.43
37452;BMP280;23314;51.114;6.900;2023-04-01T19:10:12;100017.50;;;11.46
37452;BMP280;23314;51.114;6.900;2023-04-01T19:18:46;100027.75;;;11.47
37452;BMP280;23314;51.114;6.900;2023-04-01T19:21:23;100025.06;;;11.47
37452;BMP280;23314;51.114;6.900;2023-04-01T19:23:53;100033.41;;;11.49
37452;BMP280;23314;51.114;6.900;2023-04-01T19:29:15;100028.50;;;11.48
37452;BMP280;23314;51.114;6.900;2023-04-01T19:35:02;100035.03;;;11.47
37452;BMP280;23314;51.114;6.900;2023-04-01T19:40:30;100041.22;;;11.44
37452;BMP280;23314;51.114;6.900;2023-04-01T19:45:52;100038.31;;;11.38
37452;BMP280;23314;51.114;6.900;2023-04-01T19:51:06;100044.38;;;11.38
37452;BMP280;23314;51.114;6.900;2023-04-01T19:56:23;100050.91;;;11.37
37452;BMP280;23314;51.114;6.900;2023-04-01T19:58:57;100060.31;;;11.42
37452;BMP280;23314;51.114;6.900;2023-04-01T20:01:37;100060.63;;;11.44
37452;BMP280;23314;51.114;6.900;2023-04-01T20:04:25;100060.22;;;11.46
37452;BMP280;23314;51.114;6.900;2023-04-01T20:06:59;100068.97;;;11.46
37452;BMP280;23314;51.114;6.900;2023-04-01T20:15:03;100070.59;;;11.44
37452;BMP280;23314;51.114;6.900;2023-04-01T20:17:32;100080.09;;;11.45
37452;BMP280;23314;51.114;6.900;2023-04-01T20:20:18;100079.78;;;11.43
37452;BMP280;23314;51.114;6.900;2023-04-01T20:25:20;100086.63;;;11.44
37452;BMP280;23314;51.114;6.900;2023-04-01T20:28:14;100084.78;;;11.40
37452;BMP280;23314;51.114;6.900;2023-04-01T20:39:33;100105.81;;;11.38
37452;BMP280;23314;51.114;6.900;2023-04-01T20:45:30;100105.47;;;11.36
37452;BMP280;23314;51.114;6.900;2023-04-01T20:50:57;100117.59;;;11.41
37452;BMP280;23314;51.114;6.900;2023-04-01T20:53:51;100109.56;;;11.41
37452;BMP280;23314;51.114;6.900;2023-04-01T20:58:56;100122.38;;;11.46
37452;BMP280;23314;51.114;6.900;2023-04-01T21:01:46;100123.50;;;11.49
37452;BMP280;23314;51.114;6.900;2023-04-01T21:05:00;100121.22;;;11.47
37452;BMP280;23314;51.114;6.900;2023-04-01T21:07:38;100126.50;;;11.51
37452;BMP280;23314;51.114;6.900;2023-04-01T21:13:01;100133.09;;;11.59
37452;BMP280;23314;51.114;6.900;2023-04-01T21:15:42;100134.19;;;11.62
37452;BMP280;23314;51.114;6.900;2023-04-01T21:27:00;100148.09;;;11.69
37452;BMP280;23314;51.114;6.900;2023-04-01T21:29:44;100153.34;;;11.73
37452;BMP280;23314;51.114;6.900;2023-04-01T21:35:18;100148.31;;;11.75
37452;BMP280;23314;51.114;6.900;2023-04-01T21:37:59;100156.66;;;11.77
37452;BMP280;23314;51.114;6.900;2023-04-01T21:43:33;100163.53;;;11.78
37452;BMP280;23314;51.114;6.900;2023-04-01T21:48:52;100171.88;;;11.80
37452;BMP280;23314;51.114;6.900;2023-04-01T21:51:43;100172.28;;;11.79
37452;BMP280;23314;51.114;6.900;2023-04-01T21:54:35;100176.03;;;11.81
37452;BMP280;23314;51.114;6.900;2023-04-01T21:57:33;100190.88;;;11.82